sensor_id;sensor_type;location;lat;lon;timestamp;pressure;altitude;pressure_sealevel;temperature;humidity
73842;BME280;62184;52.006;5.924;2024-02-28T00:02:16;101212.34;;;11.43;53.70
73842;BME280;62184;52.006;5.924;2024-02-28T00:04:42;101206.16;;;11.41;53.65
73842;BME280;62184;52.006;5.924;2024-02-28T00:07:09;101204.53;;;11.34;53.62
73842;BME280;62184;52.006;5.924;2024-02-28T00:09:36;101209.16;;;11.27;53.78
73842;BME280;62184;52.006;5.924;2024-02-28T00:12:02;101191.38;;;11.25;53.97
73842;BME280;62184;52.006;5.924;2024-02-28T00:14:31;101196.00;;;11.16;53.71
73842;BME280;62184;52.006;5.924;2024-02-28T00:16:58;101197.63;;;11.24;54.01
73842;BME280;62184;52.006;5.924;2024-02-28T00:19:24;101210.00;;;11.29;53.77
73842;BME280;62184;52.006;5.924;2024-02-28T00:21:51;101226.88;;;11.31;53.64
73842;BME280;62184;52.006;5.924;2024-02-28T00:24:17;101222.50;;;11.29;53.55
73842;BME280;62184;52.006;5.924;2024-02-28T00:26:43;101218.94;;;11.28;53.65
73842;BME280;62184;52.006;5.924;2024-02-28T00:29:10;101219.81;;;11.29;53.35
73842;BME280;62184;52.006;5.924;2024-02-28T00:31:39;101221.66;;;11.25;53.76
73842;BME280;62184;52.006;5.924;2024-02-28T00:34:05;101215.41;;;11.26;53.65
73842;BME280;62184;52.006;5.924;2024-02-28T00:36:32;101203.66;;;11.33;53.64
73842;BME280;62184;52.006;5.924;2024-02-28T00:38:58;101205.47;;;11.31;53.45
73842;BME280;62184;52.006;5.924;2024-02-28T00:41:24;101202.63;;;11.39;53.64
73842;BME280;62184;52.006;5.924;2024-02-28T00:43:51;101211.34;;;11.48;53.78
73842;BME280;62184;52.006;5.924;2024-02-28T00:46:18;101203.19;;;11.54;53.47
73842;BME280;62184;52.006;5.924;2024-02-28T00:48:47;101201.28;;;11.60;53.51
73842;BME280;62184;52.006;5.924;2024-02-28T00:51:13;101208.22;;;11.67;53.48
73842;BME280;62184;52.006;5.924;2024-02-28T00:53:40;101202.88;;;11.67;53.29
73842;BME280;62184;52.006;5.924;2024-02-28T00:56:06;101206.38;;;11.70;53.26
73842;BME280;62184;52.006;5.924;2024-02-28T00:58:33;101201.78;;;11.75;53.44
73842;BME280;62184;52.006;5.924;2024-02-28T01:00:59;101198.19;;;11.76;53.24
73842;BME280;62184;52.006;5.924;2024-02-28T01:03:25;101198.13;;;11.79;53.23
73842;BME280;62184;52.006;5.924;2024-02-28T01:05:54;101193.69;;;11.78;52.96
73842;BME280;62184;52.006;5.924;2024-02-28T01:08:21;101195.56;;;11.75;53.26
73842;BME280;62184;52.006;5.924;2024-02-28T01:10:48;101194.81;;;11.68;53.13
73842;BME280;62184;52.006;5.924;2024-02-28T01:13:14;101193.06;;;11.67;53.12
73842;BME280;62184;52.006;5.924;2024-02-28T01:15:41;101195.72;;;11.69;53.16
73842;BME280;62184;52.006;5.924;2024-02-28T01:18:09;101188.59;;;11.68;53.11
73842;BME280;62184;52.006;5.924;2024-02-28T01:20:35;101194.06;;;11.63;52.82
73842;BME280;62184;52.006;5.924;2024-02-28T01:23:05;101195.97;;;11.57;53.08
73842;BME280;62184;52.006;5.924;2024-02-28T01:25:31;101198.78;;;11.52;53.04
73842;BME280;62184;52.006;5.924;2024-02-28T01:27:57;101201.44;;;11.53;53.21
73842;BME280;62184;52.006;5.924;2024-02-28T01:30:24;101203.09;;;11.58;53.00
73842;BME280;62184;52.006;5.924;2024-02-28T01:32:50;101200.34;;;11.61;53.48
73842;BME280;62184;52.006;5.924;2024-02-28T01:35:17;101199.44;;;11.62;53.40
73842;BME280;62184;52.006;5.924;2024-02-28T01:37:43;101203.09;;;11.58;53.62
73842;BME280;62184;52.006;5.924;2024-02-28T01:40:13;101195.16;;;11.54;53.35
73842;BME280;62184;52.006;5.924;2024-02-28T01:42:39;101202.25;;;11.55;53.60
73842;BME280;62184;52.006;5.924;2024-02-28T01:45:07;101202.31;;;11.54;53.59
73842;BME280;62184;52.006;5.924;2024-02-28T01:47:39;101202.34;;;11.52;53.75
73842;BME280;62184;52.006;5.924;2024-02-28T01:50:06;101200.50;;;11.54;53.34
73842;BME280;62184;52.006;5.924;2024-02-28T01:52:35;101203.22;;;11.53;53.74
73842;BME280;62184;52.006;5.924;2024-02-28T01:55:04;101205.91;;;11.51;53.54
73842;BME280;62184;52.006;5.924;2024-02-28T01:57:36;101196.13;;;11.50;53.47
73842;BME280;62184;52.006;5.924;2024-02-28T02:00:05;101202.38;;;11.49;53.52
73842;BME280;62184;52.006;5.924;2024-02-28T02:02:32;101194.47;;;11.46;53.32
73842;BME280;62184;52.006;5.924;2024-02-28T02:04:59;101201.72;;;11.40;53.18
73842;BME280;62184;52.006;5.924;2024-02-28T02:07:25;101201.69;;;11.41;53.49
73842;BME280;62184;52.006;5.924;2024-02-28T02:09:52;101202.53;;;11.43;53.14
73842;BME280;62184;52.006;5.924;2024-02-28T02:12:18;101200.78;;;11.42;53.45
73842;BME280;62184;52.006;5.924;2024-02-28T02:14:49;101205.16;;;11.46;53.64
73842;BME280;62184;52.006;5.924;2024-02-28T02:17:16;101205.09;;;11.48;53.56
73842;BME280;62184;52.006;5.924;2024-02-28T02:19:42;101204.19;;;11.49;53.30
73842;BME280;62184;52.006;5.924;2024-02-28T02:22:10;101205.16;;;11.46;53.07
73842;BME280;62184;52.006;5.924;2024-02-28T02:24:42;101206.94;;;11.46;53.11
73842;BME280;62184;52.006;5.924;2024-02-28T02:27:08;101204.19;;;11.49;53.02
73842;BME280;62184;52.006;5.924;2024-02-28T02:29:35;101203.19;;;11.54;52.97
73842;BME280;62184;52.006;5.924;2024-02-28T02:32:01;101205.91;;;11.51;52.68
73842;BME280;62184;52.006;5.924;2024-02-28T02:34:28;101199.00;;;11.41;52.57
73842;BME280;62184;52.006;5.924;2024-02-28T02:36:54;101203.69;;;11.32;52.47
73842;BME280;62184;52.006;5.924;2024-02-28T02:39:20;101197.63;;;11.24;52.56
73842;BME280;62184;52.006;5.924;2024-02-28T02:41:50;101201.31;;;11.18;52.66
73842;BME280;62184;52.006;5.924;2024-02-28T02:44:16;101197.81;;;11.14;52.78
73842;BME280;62184;52.006;5.924;2024-02-28T02:46:43;101203.13;;;11.18;52.66
73842;BME280;62184;52.006;5.924;2024-02-28T02:49:09;101211.19;;;11.14;52.81
73842;BME280;62184;52.006;5.924;2024-02-28T02:51:35;101202.25;;;11.15;52.73
73842;BME280;62184;52.006;5.924;2024-02-28T02:54:02;101205.91;;;11.13;52.49
73842;BME280;62184;52.006;5.924;2024-02-28T02:56:28;101205.03;;;11.11;52.55
73842;BME280;62184;52.006;5.924;2024-02-28T02:58:57;101199.72;;;11.09;52.41
73842;BME280;62184;52.006;5.924;2024-02-28T03:01:24;101202.44;;;11.08;52.59
73842;BME280;62184;52.006;5.924;2024-02-28T03:03:50;101205.06;;;11.09;52.40
73842;BME280;62184;52.006;5.924;2024-02-28T03:06:17;101209.53;;;11.09;52.40
73842;BME280;62184;52.006;5.924;2024-02-28T03:08:43;101206.97;;;11.04;52.01
73842;BME280;62184;52.006;5.924;2024-02-28T03:11:09;101203.44;;;11.02;51.82
73842;BME280;62184;52.006;5.924;2024-02-28T03:13:36;101199.06;;;10.98;51.95
73842;BME280;62184;52.006;5.924;2024-02-28T03:16:06;101193.78;;;10.95;51.84
73842;BME280;62184;52.006;5.924;2024-02-28T03:18:32;101195.56;;;10.96;51.96
73842;BME280;62184;52.006;5.924;2024-02-28T03:20:59;101189.38;;;10.94;52.02
73842;BME280;62184;52.006;5.924;2024-02-28T03:23:25;101191.94;;;10.97;52.17
73842;BME280;62184;52.006;5.924;2024-02-28T03:25:52;101192.81;;;10.98;51.99
73842;BME280;62184;52.006;5.924;2024-02-28T03:28:18;101191.94;;;10.97;52.11
73842;BME280;62184;52.006;5.924;2024-02-28T03:30:44;101191.13;;;10.95;52.13
73842;BME280;62184;52.006;5.924;2024-02-28T03:33:13;101202.69;;;10.96;52.05
73842;BME280;62184;52.006;5.924;2024-02-28T03:35:40;101190.16;;;10.98;52.20
73842;BME280;62184;52.006;5.924;2024-02-28T03:38:06;101200.78;;;11.02;52.38
73842;BME280;62184;52.006;5.924;2024-02-28T03:40:33;101195.41;;;11.04;52.42
73842;BME280;62184;52.006;5.924;2024-02-28T03:42:59;101197.28;;;10.99;52.09
73842;BME280;62184;52.006;5.924;2024-02-28T03:45:28;101195.75;;;10.87;52.25
73842;BME280;62184;52.006;5.924;2024-02-28T03:47:55;101193.25;;;10.78;52.46
73842;BME280;62184;52.006;5.924;2024-02-28T03:50:24;101195.97;;;10.75;52.44
73842;BME280;62184;52.006;5.924;2024-02-28T03:52:50;101200.44;;;10.73;52.45
73842;BME280;62184;52.006;5.924;2024-02-28T03:55:17;101202.19;;;10.77;52.33
73842;BME280;62184;52.006;5.924;2024-02-28T03:57:46;101197.88;;;10.68;52.31
73842;BME280;62184;52.006;5.924;2024-02-28T04:00:14;101199.78;;;10.62;52.56
73842;BME280;62184;52.006;5.924;2024-02-28T04:02:41;101200.72;;;10.58;52.59
73842;BME280;62184;52.006;5.924;2024-02-28T04:05:08;101198.91;;;10.61;52.60
73842;BME280;62184;52.006;5.924;2024-02-28T04:07:37;101208.69;;;10.61;52.68
73842;BME280;62184;52.006;5.924;2024-02-28T04:10:04;101203.34;;;10.61;52.73
73842;BME280;62184;52.006;5.924;2024-02-28T04:12:31;101207.78;;;10.62;52.86
73842;BME280;62184;52.006;5.924;2024-02-28T04:14:58;101205.19;;;10.57;52.70
73842;BME280;62184;52.006;5.924;2024-02-28T04:17:24;101207.94;;;10.54;52.99
73842;BME280;62184;52.006;5.924;2024-02-28T04:19:51;101209.66;;;10.57;53.11
73842;BME280;62184;52.006;5.924;2024-02-28T04:22:17;101218.53;;;10.59;52.88
73842;BME280;62184;52.006;5.924;2024-02-28T04:24:46;101216.75;;;10.59;52.89
73842;BME280;62184;52.006;5.924;2024-02-28T04:27:13;101219.38;;;10.61;52.98
73842;BME280;62184;52.006;5.924;2024-02-28T04:29:39;101214.84;;;10.64;52.91
73842;BME280;62184;52.006;5.924;2024-02-28T04:32:06;101214.78;;;10.69;53.21
73842;BME280;62184;52.006;5.924;2024-02-28T04:34:32;101219.97;;;10.78;52.88
73842;BME280;62184;52.006;5.924;2024-02-28T04:36:59;101212.75;;;10.82;52.83
73842;BME280;62184;52.006;5.924;2024-02-28T04:39:25;101223.44;;;10.83;52.90
73842;BME280;62184;52.006;5.924;2024-02-28T04:41:54;101216.31;;;10.82;52.79
73842;BME280;62184;52.006;5.924;2024-02-28T04:44:21;101219.00;;;10.82;52.73
73842;BME280;62184;52.006;5.924;2024-02-28T04:46:47;101228.00;;;10.76;52.90
73842;BME280;62184;52.006;5.924;2024-02-28T04:49:13;101219.19;;;10.71;52.82
73842;BME280;62184;52.006;5.924;2024-02-28T04:51:40;101225.50;;;10.66;52.88
73842;BME280;62184;52.006;5.924;2024-02-28T04:54:06;101229.09;;;10.65;52.81
73842;BME280;62184;52.006;5.924;2024-02-28T04:56:33;101223.75;;;10.65;52.77
73842;BME280;62184;52.006;5.924;2024-02-28T04:59:02;101219.22;;;10.68;52.91
73842;BME280;62184;52.006;5.924;2024-02-28T05:01:28;101225.50;;;10.66;52.98
73842;BME280;62184;52.006;5.924;2024-02-28T05:03:54;101231.66;;;10.71;52.89
73842;BME280;62184;52.006;5.924;2024-02-28T05:06:21;101236.16;;;10.69;52.87
73842;BME280;62184;52.006;5.924;2024-02-28T05:08:47;101238.84;;;10.67;52.72
73842;BME280;62184;52.006;5.924;2024-02-28T05:11:14;101233.78;;;10.54;53.14
73842;BME280;62184;52.006;5.924;2024-02-28T05:13:40;101230.41;;;10.41;53.15
73842;BME280;62184;52.006;5.924;2024-02-28T05:16:14;101226.88;;;10.39;53.19
73842;BME280;62184;52.006;5.924;2024-02-28T05:18:41;101228.75;;;10.35;53.26
73842;BME280;62184;52.006;5.924;2024-02-28T05:21:08;101234.28;;;10.25;53.22
73842;BME280;62184;52.006;5.924;2024-02-28T05:23:34;101238.75;;;10.23;53.19
73842;BME280;62184;52.006;5.924;2024-02-28T05:26:01;101234.44;;;10.14;53.51
73842;BME280;62184;52.006;5.924;2024-02-28T05:28:28;101236.31;;;10.09;53.33
73842;BME280;62184;52.006;5.924;2024-02-28T05:30:54;101233.75;;;10.05;53.60
73842;BME280;62184;52.006;5.924;2024-02-28T05:33:23;101235.47;;;10.07;53.70
73842;BME280;62184;52.006;5.924;2024-02-28T05:35:49;101239.00;;;10.08;53.56
73842;BME280;62184;52.006;5.924;2024-02-28T05:38:16;101249.78;;;10.03;53.55
73842;BME280;62184;52.006;5.924;2024-02-28T05:40:42;101251.59;;;10.01;53.60
73842;BME280;62184;52.006;5.924;2024-02-28T05:43:09;101254.31;;;9.96;53.54
73842;BME280;62184;52.006;5.924;2024-02-28T05:45:35;101258.72;;;9.99;53.68
73842;BME280;62184;52.006;5.924;2024-02-28T05:48:02;101256.81;;;10.06;53.84
73842;BME280;62184;52.006;5.924;2024-02-28T05:50:31;101243.44;;;10.09;53.69
73842;BME280;62184;52.006;5.924;2024-02-28T05:52:57;101249.69;;;10.08;53.63
73842;BME280;62184;52.006;5.924;2024-02-28T05:55:24;101256.81;;;10.07;53.34
73842;BME280;62184;52.006;5.924;2024-02-28T05:57:50;101261.25;;;10.07;53.64
73842;BME280;62184;52.006;5.924;2024-02-28T06:00:18;101263.81;;;10.14;53.51
73842;BME280;62184;52.006;5.924;2024-02-28T06:02:44;101261.97;;;10.18;53.27
73842;BME280;62184;52.006;5.924;2024-02-28T06:05:11;101260.31;;;10.12;53.28
73842;BME280;62184;52.006;5.924;2024-02-28T06:07:40;101262.88;;;10.17;53.42
73842;BME280;62184;52.006;5.924;2024-02-28T06:10:07;101258.44;;;10.17;53.14
73842;BME280;62184;52.006;5.924;2024-02-28T06:12:34;101251.28;;;10.19;53.26
73842;BME280;62184;52.006;5.924;2024-02-28T06:15:00;101258.41;;;10.20;53.37
73842;BME280;62184;52.006;5.924;2024-02-28T06:17:27;101263.72;;;10.20;53.63
73842;BME280;62184;52.006;5.924;2024-02-28T06:19:53;101267.97;;;10.30;53.51
73842;BME280;62184;52.006;5.924;2024-02-28T06:22:20;101275.91;;;10.36;53.39
73842;BME280;62184;52.006;5.924;2024-02-28T06:24:49;101271.53;;;10.31;53.57
73842;BME280;62184;52.006;5.924;2024-02-28T06:27:15;101280.41;;;10.33;53.55
73842;BME280;62184;52.006;5.924;2024-02-28T06:29:42;101283.13;;;10.30;53.72
73842;BME280;62184;52.006;5.924;2024-02-28T06:32:08;101278.72;;;10.29;53.67
73842;BME280;62184;52.006;5.924;2024-02-28T06:34:34;101287.50;;;10.35;53.49
73842;BME280;62184;52.006;5.924;2024-02-28T06:37:01;101285.69;;;10.37;53.25
73842;BME280;62184;52.006;5.924;2024-02-28T06:39:27;101284.88;;;10.31;53.14
73842;BME280;62184;52.006;5.924;2024-02-28T06:41:56;101289.44;;;10.24;53.43
73842;BME280;62184;52.006;5.924;2024-02-28T06:44:23;101293.22;;;10.13;53.75
73842;BME280;62184;52.006;5.924;2024-02-28T06:46:49;101293.31;;;10.05;53.92
73842;BME280;62184;52.006;5.924;2024-02-28T06:49:15;101303.16;;;10.03;54.20
73842;BME280;62184;52.006;5.924;2024-02-28T06:51:43;101304.03;;;10.03;54.14
73842;BME280;62184;52.006;5.924;2024-02-28T06:54:10;101303.97;;;10.05;54.18
73842;BME280;62184;52.006;5.924;2024-02-28T06:56:36;101301.31;;;10.05;54.42
73842;BME280;62184;52.006;5.924;2024-02-28T06:59:06;101311.19;;;10.01;54.23
73842;BME280;62184;52.006;5.924;2024-02-28T07:01:32;101301.38;;;10.02;54.37
73842;BME280;62184;52.006;5.924;2024-02-28T07:03:58;101303.16;;;10.03;54.27
73842;BME280;62184;52.006;5.924;2024-02-28T07:06:25;101302.28;;;10.02;54.48
73842;BME280;62184;52.006;5.924;2024-02-28T07:08:51;101318.28;;;10.01;54.43
73842;BME280;62184;52.006;5.924;2024-02-28T07:11:18;101323.72;;;9.95;54.20
73842;BME280;62184;52.006;5.924;2024-02-28T07:13:44;101319.31;;;9.92;54.66
73842;BME280;62184;52.006;5.924;2024-02-28T07:16:13;101330.78;;;9.97;54.61
73842;BME280;62184;52.006;5.924;2024-02-28T07:18:39;101323.66;;;9.98;54.61
73842;BME280;62184;52.006;5.924;2024-02-28T07:21:06;101331.56;;;10.06;54.67
73842;BME280;62184;52.006;5.924;2024-02-28T07:23:32;101321.66;;;10.14;54.45
73842;BME280;62184;52.006;5.924;2024-02-28T07:25:59;101321.56;;;10.20;54.43
73842;BME280;62184;52.006;5.924;2024-02-28T07:28:25;101328.59;;;10.25;54.52
73842;BME280;62184;52.006;5.924;2024-02-28T07:30:52;101327.78;;;10.20;54.51
73842;BME280;62184;52.006;5.924;2024-02-28T07:33:21;101334.03;;;10.19;54.51
73842;BME280;62184;52.006;5.924;2024-02-28T07:35:48;101340.25;;;10.21;54.88
73842;BME280;62184;52.006;5.924;2024-02-28T07:38:15;101343.69;;;10.29;54.63
73842;BME280;62184;52.006;5.924;2024-02-28T07:40:41;101346.88;;;10.50;54.93
73842;BME280;62184;52.006;5.924;2024-02-28T07:43:08;101340.34;;;10.67;54.25
73842;BME280;62184;52.006;5.924;2024-02-28T07:45:34;101350.03;;;10.73;54.16
73842;BME280;62184;52.006;5.924;2024-02-28T07:48:01;101352.78;;;10.71;54.09
73842;BME280;62184;52.006;5.924;2024-02-28T07:50:30;101353.63;;;10.72;54.07
73842;BME280;62184;52.006;5.924;2024-02-28T07:52:56;101345.59;;;10.72;53.73
73842;BME280;62184;52.006;5.924;2024-02-28T07:55:23;101349.25;;;10.68;53.89
73842;BME280;62184;52.006;5.924;2024-02-28T07:57:51;101354.59;;;10.68;54.15
73842;BME280;62184;52.006;5.924;2024-02-28T08:00:17;101363.41;;;10.73;53.94
73842;BME280;62184;52.006;5.924;2024-02-28T08:02:44;101362.50;;;10.75;54.38
73842;BME280;62184;52.006;5.924;2024-02-28T08:05:10;101368.63;;;10.82;54.16
73842;BME280;62184;52.006;5.924;2024-02-28T08:07:39;101364.03;;;10.90;54.34
73842;BME280;62184;52.006;5.924;2024-02-28T08:10:07;101364.03;;;10.90;54.38
73842;BME280;62184;52.006;5.924;2024-02-28T08:12:34;101370.13;;;10.98;54.42
73842;BME280;62184;52.006;5.924;2024-02-28T08:15:00;101380.78;;;11.00;54.05
73842;BME280;62184;52.006;5.924;2024-02-28T08:17:26;101379.78;;;11.05;54.04
73842;BME280;62184;52.006;5.924;2024-02-28T08:19:53;101372.69;;;11.04;53.93
73842;BME280;62184;52.006;5.924;2024-02-28T08:22:22;101390.47;;;11.05;54.12
73842;BME280;62184;52.006;5.924;2024-02-28T08:24:53;101391.41;;;11.04;54.21
73842;BME280;62184;52.006;5.924;2024-02-28T08:27:20;101381.47;;;11.12;54.47
73842;BME280;62184;52.006;5.924;2024-02-28T08:29:46;101394.66;;;11.22;54.48
73842;BME280;62184;52.006;5.924;2024-02-28T08:32:13;101398.13;;;11.25;54.50
73842;BME280;62184;52.006;5.924;2024-02-28T08:34:43;101389.97;;;11.33;54.58
73842;BME280;62184;52.006;5.924;2024-02-28T08:37:09;101384.56;;;11.36;54.47
73842;BME280;62184;52.006;5.924;2024-02-28T08:39:36;101393.50;;;11.35;54.57
73842;BME280;62184;52.006;5.924;2024-02-28T08:42:05;101389.81;;;11.40;54.55
73842;BME280;62184;52.006;5.924;2024-02-28T08:44:32;101395.88;;;11.50;54.47
73842;BME280;62184;52.006;5.924;2024-02-28T08:46:58;101399.25;;;11.60;54.60
73842;BME280;62184;52.006;5.924;2024-02-28T08:49:25;101400.09;;;11.63;54.35
73842;BME280;62184;52.006;5.924;2024-02-28T08:51:51;101400.91;;;11.65;54.38
73842;BME280;62184;52.006;5.924;2024-02-28T08:54:17;101397.34;;;11.66;54.11
73842;BME280;62184;52.006;5.924;2024-02-28T08:56:44;101398.25;;;11.65;53.95
73842;BME280;62184;52.006;5.924;2024-02-28T08:59:13;101399.97;;;11.69;54.15
73842;BME280;62184;52.006;5.924;2024-02-28T09:01:39;101398.81;;;11.81;54.36
73842;BME280;62184;52.006;5.924;2024-02-28T09:04:06;101395.13;;;11.86;53.94
73842;BME280;62184;52.006;5.924;2024-02-28T09:06:33;101399.69;;;11.81;54.47
73842;BME280;62184;52.006;5.924;2024-02-28T09:08:59;101398.94;;;11.75;54.66
73842;BME280;62184;52.006;5.924;2024-02-28T09:11:25;101400.50;;;11.86;54.73
73842;BME280;62184;52.006;5.924;2024-02-28T09:13:52;101394.84;;;11.99;54.62
73842;BME280;62184;52.006;5.924;2024-02-28T09:16:21;101394.34;;;12.23;54.46
73842;BME280;62184;52.006;5.924;2024-02-28T09:18:47;101401.41;;;12.27;54.04
73842;BME280;62184;52.006;5.924;2024-02-28T09:21:14;101399.31;;;12.40;53.88
73842;BME280;62184;52.006;5.924;2024-02-28T09:23:40;101399.94;;;12.51;54.03
73842;BME280;62184;52.006;5.924;2024-02-28T09:26:06;101401.53;;;12.59;53.31
73842;BME280;62184;52.006;5.924;2024-02-28T09:28:33;101402.28;;;12.64;53.49
73842;BME280;62184;52.006;5.924;2024-02-28T09:30:59;101393.13;;;12.73;53.21
73842;BME280;62184;52.006;5.924;2024-02-28T09:33:28;101399.25;;;12.80;53.15
73842;BME280;62184;52.006;5.924;2024-02-28T09:35:55;101401.25;;;12.72;52.56
73842;BME280;62184;52.006;5.924;2024-02-28T09:38:21;101398.78;;;12.62;52.80
73842;BME280;62184;52.006;5.924;2024-02-28T09:40:48;101397.22;;;12.52;52.37
73842;BME280;62184;52.006;5.924;2024-02-28T09:43:19;101402.66;;;12.49;52.65
73842;BME280;62184;52.006;5.924;2024-02-28T09:45:56;101394.50;;;12.55;52.85
73842;BME280;62184;52.006;5.924;2024-02-28T09:48:29;101398.91;;;12.56;52.82
73842;BME280;62184;52.006;5.924;2024-02-28T09:50:57;101403.31;;;12.59;52.71
73842;BME280;62184;52.006;5.924;2024-02-28T09:53:23;101396.16;;;12.59;52.95
73842;BME280;62184;52.006;5.924;2024-02-28T09:55:52;101403.28;;;12.60;52.75
73842;BME280;62184;52.006;5.924;2024-02-28T09:58:19;101402.78;;;12.45;53.39
73842;BME280;62184;52.006;5.924;2024-02-28T10:00:46;101406.63;;;12.70;53.34
73842;BME280;62184;52.006;5.924;2024-02-28T10:03:14;101399.75;;;12.94;53.51
73842;BME280;62184;52.006;5.924;2024-02-28T10:05:46;101402.66;;;13.20;53.34
73842;BME280;62184;52.006;5.924;2024-02-28T10:08:13;101406.59;;;13.39;53.08
73842;BME280;62184;52.006;5.924;2024-02-28T10:10:44;101408.31;;;13.43;52.84
73842;BME280;62184;52.006;5.924;2024-02-28T10:13:11;101403.81;;;13.44;52.64
73842;BME280;62184;52.006;5.924;2024-02-28T10:15:38;101397.53;;;13.45;52.41
73842;BME280;62184;52.006;5.924;2024-02-28T10:18:05;101401.00;;;13.49;52.38
73842;BME280;62184;52.006;5.924;2024-02-28T10:20:31;101404.63;;;13.48;52.48
73842;BME280;62184;52.006;5.924;2024-02-28T10:23:03;101414.13;;;13.59;52.68
73842;BME280;62184;52.006;5.924;2024-02-28T10:25:30;101414.56;;;13.75;52.49
73842;BME280;62184;52.006;5.924;2024-02-28T10:28:00;101405.25;;;13.88;52.73
73842;BME280;62184;52.006;5.924;2024-02-28T10:30:26;101416.28;;;14.07;52.40
73842;BME280;62184;52.006;5.924;2024-02-28T10:32:53;101404.03;;;14.28;52.86
73842;BME280;62184;52.006;5.924;2024-02-28T10:35:20;101406.03;;;14.49;52.53
73842;BME280;62184;52.006;5.924;2024-02-28T10:37:47;101410.88;;;14.66;52.11
73842;BME280;62184;52.006;5.924;2024-02-28T10:40:19;101411.72;;;14.68;51.82
73842;BME280;62184;52.006;5.924;2024-02-28T10:42:48;101410.00;;;14.65;51.38
73842;BME280;62184;52.006;5.924;2024-02-28T10:45:17;101411.06;;;14.61;51.65
73842;BME280;62184;52.006;5.924;2024-02-28T10:47:44;101414.66;;;14.60;51.43
73842;BME280;62184;52.006;5.924;2024-02-28T10:50:12;101403.56;;;14.71;51.72
73842;BME280;62184;52.006;5.924;2024-02-28T10:52:43;101399.13;;;14.96;52.07
73842;BME280;62184;52.006;5.924;2024-02-28T10:55:10;101401.72;;;15.24;52.13
73842;BME280;62184;52.006;5.924;2024-02-28T10:57:40;101392.19;;;15.40;51.21
73842;BME280;62184;52.006;5.924;2024-02-28T11:00:10;101394.94;;;15.39;50.88
73842;BME280;62184;52.006;5.924;2024-02-28T11:02:39;101399.53;;;15.35;50.74
73842;BME280;62184;52.006;5.924;2024-02-28T11:05:07;101399.81;;;15.27;50.45
73842;BME280;62184;52.006;5.924;2024-02-28T11:07:35;101397.44;;;15.18;50.14
73842;BME280;62184;52.006;5.924;2024-02-28T11:10:05;101392.13;;;15.17;50.48
73842;BME280;62184;52.006;5.924;2024-02-28T11:12:32;101398.09;;;15.25;50.76
73842;BME280;62184;52.006;5.924;2024-02-28T11:15:02;101392.69;;;15.26;50.58
73842;BME280;62184;52.006;5.924;2024-02-28T11:17:30;101390.31;;;15.17;50.25
73842;BME280;62184;52.006;5.924;2024-02-28T11:19:56;101390.13;;;14.97;50.02
73842;BME280;62184;52.006;5.924;2024-02-28T11:22:23;101383.03;;;14.94;50.95
73842;BME280;62184;52.006;5.924;2024-02-28T11:24:53;101374.91;;;14.96;50.87
73842;BME280;62184;52.006;5.924;2024-02-28T11:27:20;101379.66;;;15.14;51.26
73842;BME280;62184;52.006;5.924;2024-02-28T11:29:47;101377.59;;;15.22;51.05
73842;BME280;62184;52.006;5.924;2024-02-28T11:32:16;101377.91;;;15.38;51.16
73842;BME280;62184;52.006;5.924;2024-02-28T11:34:42;101380.13;;;15.50;50.79
73842;BME280;62184;52.006;5.924;2024-02-28T11:37:09;101378.97;;;15.57;50.76
73842;BME280;62184;52.006;5.924;2024-02-28T11:39:36;101385.13;;;15.62;50.62
73842;BME280;62184;52.006;5.924;2024-02-28T11:42:12;101380.44;;;15.67;50.65
73842;BME280;62184;52.006;5.924;2024-02-28T11:44:40;101372.78;;;15.80;50.86
73842;BME280;62184;52.006;5.924;2024-02-28T11:47:08;101369.94;;;15.83;50.41
73842;BME280;62184;52.006;5.924;2024-02-28T11:49:38;101373.66;;;15.81;49.73
73842;BME280;62184;52.006;5.924;2024-02-28T11:52:05;101373.66;;;15.81;49.94
73842;BME280;62184;52.006;5.924;2024-02-28T11:54:32;101370.03;;;15.82;49.99
73842;BME280;62184;52.006;5.924;2024-02-28T11:57:00;101368.97;;;15.86;49.97
73842;BME280;62184;52.006;5.924;2024-02-28T11:59:27;101368.88;;;15.89;50.04
73842;BME280;62184;52.006;5.924;2024-02-28T12:01:53;101363.22;;;15.95;50.10
73842;BME280;62184;52.006;5.924;2024-02-28T12:04:19;101359.59;;;15.96;50.04
73842;BME280;62184;52.006;5.924;2024-02-28T12:06:48;101363.03;;;15.99;50.21
73842;BME280;62184;52.006;5.924;2024-02-28T12:09:15;101363.03;;;15.99;49.75
73842;BME280;62184;52.006;5.924;2024-02-28T12:11:43;101350.34;;;16.03;50.38
73842;BME280;62184;52.006;5.924;2024-02-28T12:14:10;101354.44;;;16.13;50.36
73842;BME280;62184;52.006;5.924;2024-02-28T12:16:38;101344.97;;;16.25;49.69
73842;BME280;62184;52.006;5.924;2024-02-28T12:19:07;101340.34;;;16.28;49.70
73842;BME280;62184;52.006;5.924;2024-02-28T12:21:34;101344.66;;;16.32;49.68
73842;BME280;62184;52.006;5.924;2024-02-28T12:24:04;101339.97;;;16.37;49.60
73842;BME280;62184;52.006;5.924;2024-02-28T12:26:31;101336.94;;;16.45;49.79
73842;BME280;62184;52.006;5.924;2024-02-28T12:28:57;101335.56;;;16.57;49.72
73842;BME280;62184;52.006;5.924;2024-02-28T12:31:24;101328.84;;;16.67;49.16
73842;BME280;62184;52.006;5.924;2024-02-28T12:33:50;101328.06;;;16.65;49.17
73842;BME280;62184;52.006;5.924;2024-02-28T12:36:16;101325.09;;;16.71;49.11
73842;BME280;62184;52.006;5.924;2024-02-28T12:38:43;101331.50;;;16.68;48.69
73842;BME280;62184;52.006;5.924;2024-02-28T12:41:12;101329.97;;;16.61;48.82
73842;BME280;62184;52.006;5.924;2024-02-28T12:43:39;101327.25;;;16.63;49.32
73842;BME280;62184;52.006;5.924;2024-02-28T12:46:05;101329.09;;;16.61;48.81
73842;BME280;62184;52.006;5.924;2024-02-28T12:48:37;101318.94;;;16.67;49.33
73842;BME280;62184;52.006;5.924;2024-02-28T12:51:04;101314.94;;;16.77;48.79